createdAt,value
2019-06-20T00:02:01.957Z,18.82
2019-06-20T00:05:07.158Z,18.81
2019-06-20T00:08:13.575Z,18.84
2019-06-20T00:11:17.895Z,18.88
2019-06-20T00:14:22.221Z,18.88
2019-06-20T00:17:26.526Z,18.90
2019-06-20T00:20:30.863Z,18.89
2019-06-20T00:23:35.177Z,18.88
2019-06-20T00:26:39.498Z,18.90
2019-06-20T00:29:43.794Z,18.93
2019-06-20T00:32:48.175Z,18.93
2019-06-20T00:35:52.685Z,18.92
2019-06-20T00:38:56.989Z,18.89
2019-06-20T00:42:01.322Z,18.94
2019-06-20T00:45:06.187Z,18.97
2019-06-20T00:48:10.536Z,18.89
2019-06-20T00:51:15.940Z,18.82
2019-06-20T00:54:20.263Z,18.79
2019-06-20T00:57:24.586Z,18.87
2019-06-20T01:00:28.861Z,18.88
2019-06-20T01:03:33.168Z,18.87
2019-06-20T01:06:37.584Z,18.85
2019-06-20T01:09:41.883Z,18.91
2019-06-20T01:12:46.196Z,18.91
2019-06-20T01:15:52.883Z,18.89
2019-06-20T01:18:57.332Z,18.85
2019-06-20T01:22:01.718Z,18.79
2019-06-20T01:25:07.095Z,18.79
2019-06-20T01:28:11.419Z,18.72
2019-06-20T01:31:15.852Z,18.67
2019-06-20T01:34:20.169Z,18.68
2019-06-20T01:37:24.499Z,18.70
2019-06-20T01:40:30.295Z,18.71
2019-06-20T01:43:49.567Z,18.68
2019-06-20T01:46:40.646Z,18.62
2019-06-20T01:49:44.960Z,18.58
2019-06-20T01:52:49.382Z,18.57
2019-06-20T01:55:53.877Z,18.56
2019-06-20T01:58:58.214Z,18.54
2019-06-20T02:02:03.766Z,18.56
2019-06-20T02:05:09.448Z,18.59
2019-06-20T02:08:13.805Z,18.59
2019-06-20T02:11:18.193Z,18.61
2019-06-20T02:14:22.505Z,18.60
2019-06-20T02:17:28.305Z,18.63
2019-06-20T02:20:36.515Z,18.61
2019-06-20T02:23:40.892Z,18.55
2019-06-20T02:26:45.231Z,18.51
2019-06-20T02:29:49.605Z,18.49
2019-06-20T02:32:53.923Z,18.48
2019-06-20T02:35:58.282Z,18.44
2019-06-20T02:39:02.626Z,18.36
2019-06-20T02:42:07.147Z,18.33
2019-06-20T02:45:12.131Z,18.26
2019-06-20T02:48:16.422Z,18.23
2019-06-20T02:51:24.708Z,18.21
2019-06-20T02:54:29.507Z,18.14
2019-06-20T02:57:34.012Z,18.08
2019-06-20T03:00:58.392Z,18.13
2019-06-20T03:04:02.759Z,18.04
2019-06-20T03:07:07.055Z,18.03
2019-06-20T03:10:11.975Z,17.97
2019-06-20T03:13:16.338Z,17.96
2019-06-20T03:16:20.654Z,17.93
2019-06-20T03:19:25.065Z,17.97
2019-06-20T03:22:29.394Z,17.90
2019-06-20T03:25:33.715Z,18.13
2019-06-20T03:28:38.055Z,18.57
2019-06-20T03:31:42.410Z,18.89
2019-06-20T03:34:46.716Z,19.11
2019-06-20T03:37:52.334Z,19.07
2019-06-20T03:40:56.671Z,18.85
2019-06-20T03:44:01.104Z,18.93
2019-06-20T03:47:05.398Z,19.62
2019-06-20T03:50:11.595Z,20.36
2019-06-20T03:53:15.936Z,20.64
2019-06-20T03:56:21.030Z,20.51
2019-06-20T03:59:25.337Z,20.56
2019-06-20T04:02:30.675Z,20.29
2019-06-20T04:05:35.917Z,19.83
2019-06-20T04:08:40.348Z,19.29
2019-06-20T04:11:44.649Z,18.89
2019-06-20T04:14:49.321Z,18.59
2019-06-20T04:17:53.770Z,18.46
2019-06-20T04:20:58.023Z,18.33
2019-06-20T04:24:02.354Z,18.21
2019-06-20T04:27:06.690Z,18.09
2019-06-20T04:30:11.607Z,18.06
2019-06-20T04:33:15.915Z,18.07
2019-06-20T04:36:20.836Z,18.08
2019-06-20T04:39:25.206Z,18.21
2019-06-20T04:42:29.529Z,18.21
2019-06-20T04:45:48.785Z,18.19
2019-06-20T04:48:53.115Z,18.20
2019-06-20T04:51:57.431Z,18.25
2019-06-20T04:55:01.763Z,18.25
2019-06-20T04:58:06.158Z,18.25
2019-06-20T05:01:10.514Z,18.23
2019-06-20T05:04:14.795Z,18.29
2019-06-20T05:07:20.510Z,18.40
2019-06-20T05:10:24.824Z,18.54
2019-06-20T05:13:29.121Z,18.58
2019-06-20T05:16:33.505Z,18.67
2019-06-20T05:19:38.006Z,18.70
2019-06-20T05:22:42.335Z,18.79
2019-06-20T05:25:47.643Z,18.98
2019-06-20T05:28:51.945Z,19.02
2019-06-20T05:31:56.271Z,18.92
2019-06-20T05:35:02.943Z,18.85
2019-06-20T05:38:06.595Z,18.92
2019-06-20T05:41:10.870Z,18.87
2019-06-20T05:44:15.192Z,18.96
2019-06-20T05:47:19.514Z,19.09
2019-06-20T05:50:23.895Z,19.19
2019-06-20T05:53:28.943Z,19.08
2019-06-20T05:56:34.788Z,19.17
2019-06-20T05:59:39.056Z,19.27
2019-06-20T06:02:43.364Z,19.40
2019-06-20T06:05:47.690Z,19.44
2019-06-20T06:08:51.994Z,19.47
2019-06-20T06:11:56.290Z,19.61
2019-06-20T06:15:01.098Z,19.82
2019-06-20T06:18:05.456Z,19.75
2019-06-20T06:21:11.063Z,19.83
2019-06-20T06:24:15.383Z,19.95
2019-06-20T06:27:22.228Z,20.06
2019-06-20T06:30:26.813Z,20.22
2019-06-20T06:33:32.128Z,20.42
2019-06-20T06:36:36.418Z,20.67
2019-06-20T06:39:43.475Z,20.68
2019-06-20T06:42:46.873Z,20.51
2019-06-20T06:45:51.176Z,20.36
2019-06-20T06:48:55.490Z,20.20
2019-06-20T06:51:59.833Z,20.20
2019-06-20T06:55:04.415Z,20.20
2019-06-20T06:58:10.720Z,20.23
2019-06-20T07:01:16.428Z,20.32
2019-06-20T07:04:20.841Z,20.18
2019-06-20T07:07:25.125Z,20.10
2019-06-20T07:10:29.775Z,20.08
2019-06-20T07:13:34.164Z,20.18
2019-06-20T07:16:38.460Z,20.31
2019-06-20T07:19:42.770Z,20.24
2019-06-20T07:22:47.086Z,20.17
2019-06-20T07:25:51.426Z,20.13
2019-06-20T07:28:55.723Z,20.14
2019-06-20T07:32:00.027Z,20.15
2019-06-20T07:35:04.820Z,20.14
2019-06-20T07:38:10.219Z,20.14
2019-06-20T07:41:14.524Z,20.11
2019-06-20T07:44:18.825Z,20.22
2019-06-20T07:47:25.062Z,20.24
2019-06-20T07:50:29.373Z,20.24
2019-06-20T07:53:34.661Z,20.20
2019-06-20T07:56:38.997Z,20.19
2019-06-20T07:59:43.305Z,20.25
2019-06-20T08:02:47.791Z,20.41
2019-06-20T08:05:52.092Z,20.49
2019-06-20T08:08:56.415Z,20.91
2019-06-20T08:12:00.761Z,20.91
2019-06-20T08:15:14.898Z,21.03
2019-06-20T08:18:11.907Z,20.92
2019-06-20T08:21:17.195Z,20.94
2019-06-20T08:24:21.516Z,20.76
2019-06-20T08:27:43.580Z,20.57
2019-06-20T08:30:47.883Z,20.23
2019-06-20T08:33:52.190Z,20.08
2019-06-20T08:36:57.800Z,20.31
2019-06-20T08:40:02.542Z,20.53
2019-06-20T08:43:06.892Z,20.54
2019-06-20T08:46:11.211Z,20.64
2019-06-20T08:49:15.617Z,20.65
2019-06-20T08:52:19.885Z,20.81
2019-06-20T08:55:24.403Z,20.77
2019-06-20T08:58:29.510Z,20.94
2019-06-20T09:01:33.830Z,21.28
2019-06-20T09:04:38.144Z,21.29
2019-06-20T09:07:42.430Z,21.18
2019-06-20T09:10:46.725Z,21.09
2019-06-20T09:13:51.017Z,21.37
2019-06-20T09:16:56.438Z,21.50
2019-06-20T09:20:00.823Z,21.29
2019-06-20T09:23:05.660Z,20.98
2019-06-20T09:26:09.969Z,20.82
2019-06-20T09:29:14.301Z,20.55
2019-06-20T09:32:18.618Z,20.33
2019-06-20T09:35:23.225Z,20.16
2019-06-20T09:38:27.523Z,19.99
2019-06-20T09:41:31.855Z,20.28
2019-06-20T09:44:36.176Z,20.21
2019-06-20T09:47:40.519Z,20.13
2019-06-20T09:50:44.857Z,20.01
2019-06-20T09:53:49.892Z,19.99
2019-06-20T09:56:55.378Z,19.82
2019-06-20T10:00:09.766Z,19.64
2019-06-20T10:03:07.055Z,19.56
2019-06-20T10:06:14.392Z,19.50
2019-06-20T10:09:17.404Z,19.31
2019-06-20T10:12:21.685Z,19.26
2019-06-20T10:15:27.298Z,19.33
2019-06-20T10:18:31.579Z,19.59
2019-06-20T10:21:37.682Z,19.54
2019-06-20T10:24:41.978Z,19.66
2019-06-20T10:27:49.630Z,19.65
2019-06-20T10:30:55.208Z,19.56
2019-06-20T10:33:59.525Z,19.59
2019-06-20T10:37:03.970Z,19.62
2019-06-20T10:40:11.007Z,19.74
2019-06-20T10:43:15.325Z,19.46
2019-06-20T10:46:22.564Z,19.46
2019-06-20T10:49:27.033Z,19.55
2019-06-20T10:52:31.348Z,19.82
2019-06-20T10:55:35.804Z,19.87
2019-06-20T10:58:41.509Z,19.88
2019-06-20T11:01:46.721Z,19.88
2019-06-20T11:04:51.138Z,19.90
2019-06-20T11:07:55.440Z,19.74
2019-06-20T11:10:59.734Z,19.53
2019-06-20T11:14:04.006Z,19.38
2019-06-20T11:17:08.280Z,19.25
2019-06-20T11:20:13.483Z,19.40
2019-06-20T11:23:17.893Z,19.42
2019-06-20T11:26:22.419Z,19.50
2019-06-20T11:29:26.730Z,19.36
2019-06-20T11:32:31.030Z,19.29
2019-06-20T11:35:37.435Z,19.36
2019-06-20T11:38:42.542Z,19.27
2019-06-20T11:41:48.433Z,19.34
2019-06-20T11:44:53.135Z,19.37
2019-06-20T11:47:57.408Z,19.29
2019-06-20T11:51:01.766Z,19.41
2019-06-20T11:54:06.105Z,19.26
2019-06-20T11:57:10.502Z,19.24
2019-06-20T12:00:15.502Z,19.44
2019-06-20T12:03:19.809Z,19.64
2019-06-20T12:06:24.102Z,19.57
2019-06-20T12:09:28.392Z,19.58
2019-06-20T12:12:32.721Z,19.65
2019-06-20T12:15:38.087Z,19.64
2019-06-20T12:18:43.175Z,19.55
2019-06-20T12:21:47.460Z,19.60
2019-06-20T12:24:51.778Z,19.88
2019-06-20T12:27:56.067Z,19.89
2019-06-20T12:31:00.355Z,19.88
2019-06-20T12:34:04.625Z,19.93
2019-06-20T12:37:08.932Z,19.60
2019-06-20T12:40:15.076Z,19.40
2019-06-20T12:43:19.379Z,19.32
2019-06-20T12:46:23.648Z,19.36
2019-06-20T12:49:28.056Z,19.45
2019-06-20T12:52:32.330Z,19.61
2019-06-20T12:55:37.268Z,19.74
2019-06-20T12:58:44.443Z,19.81
2019-06-20T13:01:49.922Z,19.73
2019-06-20T13:04:55.070Z,19.73
2019-06-20T13:07:59.491Z,19.75
2019-06-20T13:11:03.775Z,19.67
2019-06-20T13:14:08.072Z,19.94
2019-06-20T13:17:13.540Z,20.30
2019-06-20T13:20:18.143Z,20.69
2019-06-20T13:23:22.431Z,20.69
2019-06-20T13:26:26.724Z,20.56
2019-06-20T13:29:31.046Z,20.69
2019-06-20T13:32:35.364Z,20.79
2019-06-20T13:35:41.623Z,20.95
2019-06-20T13:38:46.703Z,21.02
2019-06-20T13:41:51.030Z,21.09
2019-06-20T13:44:55.332Z,21.07
2019-06-20T13:47:59.609Z,20.85
2019-06-20T13:51:03.884Z,20.79
2019-06-20T13:54:08.244Z,20.78
2019-06-20T13:57:12.545Z,20.66
2019-06-20T14:00:17.595Z,20.62
2019-06-20T14:03:22.009Z,20.48
2019-06-20T14:06:26.273Z,20.18
2019-06-20T14:09:30.676Z,20.27
2019-06-20T14:12:34.947Z,20.52
2019-06-20T14:15:39.238Z,20.81
2019-06-20T14:18:44.561Z,20.98
2019-06-20T14:21:50.642Z,20.92
2019-06-20T14:24:55.507Z,20.85
2019-06-20T14:27:59.911Z,20.93
2019-06-20T14:31:05.231Z,20.96
2019-06-20T14:34:09.531Z,20.75
2019-06-20T14:37:13.818Z,20.64
2019-06-20T14:40:19.502Z,20.61
2019-06-20T14:43:23.793Z,20.72
2019-06-20T14:46:29.183Z,21.15
2019-06-20T14:49:33.476Z,21.42
2019-06-20T14:52:37.788Z,21.19
2019-06-20T14:55:44.239Z,21.17
2019-06-20T14:58:48.734Z,21.10
2019-06-20T15:01:53.064Z,21.08
2019-06-20T15:04:57.459Z,21.19
2019-06-20T15:08:01.744Z,21.31
2019-06-20T15:11:06.027Z,21.44
2019-06-20T15:14:10.409Z,21.54
2019-06-20T15:17:14.695Z,21.81
2019-06-20T15:20:19.679Z,21.93
2019-06-20T15:23:23.968Z,22.37
2019-06-20T15:26:28.268Z,22.83
2019-06-20T15:29:32.566Z,23.22
2019-06-20T15:32:36.852Z,23.80
2019-06-20T15:35:41.180Z,23.26
2019-06-20T15:38:47.660Z,22.97
2019-06-20T15:41:51.740Z,22.78
2019-06-20T15:44:56.026Z,23.13
2019-06-20T15:48:00.409Z,22.72
2019-06-20T15:51:04.823Z,22.81
2019-06-20T15:54:09.124Z,23.07
2019-06-20T15:57:13.434Z,23.02
2019-06-20T16:00:18.567Z,22.82
2019-06-20T16:03:22.890Z,22.94
2019-06-20T16:06:27.167Z,22.64
2019-06-20T16:09:31.463Z,22.85
2019-06-20T16:12:35.840Z,22.78
2019-06-20T16:15:40.373Z,22.48
2019-06-20T16:18:44.748Z,22.55
2019-06-20T16:21:50.839Z,22.37
2019-06-20T16:24:55.118Z,21.88
2019-06-20T16:27:59.420Z,21.58
2019-06-20T16:31:08.726Z,21.49
2019-06-20T16:34:09.728Z,22.30
2019-06-20T16:37:14.114Z,22.90
2019-06-20T16:40:24.258Z,23.76
2019-06-20T16:43:28.544Z,23.78
2019-06-20T16:46:32.832Z,23.00
2019-06-20T16:49:37.110Z,22.52
2019-06-20T16:52:41.500Z,21.99
2019-06-20T16:55:45.788Z,21.62
2019-06-20T16:58:50.082Z,22.02
2019-06-20T17:01:54.369Z,22.84
2019-06-20T17:04:58.657Z,22.65
2019-06-20T17:08:02.992Z,22.36
2019-06-20T17:11:07.389Z,22.11
2019-06-20T17:14:11.689Z,22.00
2019-06-20T17:17:15.976Z,22.28
2019-06-20T17:20:20.581Z,22.25
2019-06-20T17:23:25.064Z,21.95
2019-06-20T17:26:29.387Z,21.44
2019-06-20T17:29:33.669Z,20.91
2019-06-20T17:32:38.102Z,20.55
2019-06-20T17:35:42.469Z,20.33
2019-06-20T17:38:46.978Z,20.30
2019-06-20T17:41:55.574Z,20.09
2019-06-20T17:44:58.512Z,20.15
2019-06-20T17:48:02.820Z,20.17
2019-06-20T17:51:08.930Z,20.28
2019-06-20T17:54:13.251Z,19.91
2019-06-20T17:57:17.553Z,19.89
2019-06-20T18:00:25.005Z,19.78
2019-06-20T18:03:29.354Z,19.86
2019-06-20T18:06:33.661Z,19.74
2019-06-20T18:09:39.287Z,19.73
2019-06-20T18:12:43.587Z,19.59
2019-06-20T18:15:47.911Z,19.49
2019-06-20T18:18:52.216Z,19.51
2019-06-20T18:21:56.494Z,19.53
2019-06-20T18:25:00.994Z,19.71
2019-06-20T18:28:05.477Z,19.67
2019-06-20T18:31:09.838Z,19.48
2019-06-20T18:34:28.887Z,19.45
2019-06-20T18:37:31.272Z,19.34
2019-06-20T18:40:28.089Z,19.16
2019-06-20T18:43:32.370Z,19.21
2019-06-20T18:46:36.705Z,19.18
2019-06-20T18:49:41.070Z,19.19
2019-06-20T18:52:52.116Z,19.04
2019-06-20T18:55:52.456Z,19.01
2019-06-20T18:58:56.751Z,18.97
2019-06-20T19:02:02.174Z,18.85
2019-06-20T19:05:07.510Z,18.87
2019-06-20T19:08:11.797Z,18.66
2019-06-20T19:11:16.142Z,18.65
2019-06-20T19:14:20.547Z,18.47
2019-06-20T19:17:24.876Z,18.44
2019-06-20T19:20:29.162Z,18.49
2019-06-20T19:23:33.878Z,18.36
2019-06-20T19:26:38.310Z,18.35
2019-06-20T19:29:42.744Z,18.30
2019-06-20T19:32:47.833Z,18.13
2019-06-20T19:35:52.729Z,18.08
2019-06-20T19:38:57.848Z,18.11
2019-06-20T19:42:02.850Z,18.20
2019-06-20T19:45:09.140Z,18.24
2019-06-20T19:48:16.434Z,18.09
2019-06-20T19:51:21.370Z,17.95
2019-06-20T19:54:25.773Z,17.89
2019-06-20T19:57:30.111Z,17.75
2019-06-20T20:00:34.480Z,17.67
2019-06-20T20:03:40.240Z,17.64
2019-06-20T20:06:44.535Z,17.69
2019-06-20T20:09:48.851Z,17.78
2019-06-20T20:12:53.143Z,17.75
2019-06-20T20:15:57.462Z,17.83
2019-06-20T20:19:01.855Z,17.85
2019-06-20T20:22:06.711Z,17.93
2019-06-20T20:25:11.535Z,17.86
2019-06-20T20:28:15.845Z,17.79
2019-06-20T20:31:20.132Z,17.69
2019-06-20T20:34:24.425Z,17.65
2019-06-20T20:37:28.705Z,17.42
2019-06-20T20:40:34.117Z,17.24
2019-06-20T20:43:38.415Z,17.24
2019-06-20T20:46:43.923Z,17.18
2019-06-20T20:49:48.193Z,17.05
2019-06-20T20:52:52.575Z,16.97
2019-06-20T20:55:56.907Z,16.89
2019-06-20T20:59:01.288Z,16.86
2019-06-20T21:02:06.612Z,16.84
2019-06-20T21:05:10.902Z,16.87
2019-06-20T21:08:15.265Z,16.78
2019-06-20T21:11:19.579Z,16.73
2019-06-20T21:14:23.911Z,16.72
2019-06-20T21:17:28.224Z,16.56
2019-06-20T21:20:32.541Z,16.41
2019-06-20T21:23:36.837Z,16.42
2019-06-20T21:26:49.462Z,16.42
2019-06-20T21:29:47.298Z,16.36
2019-06-20T21:32:53.438Z,16.32
2019-06-20T21:36:07.903Z,16.30
2019-06-20T21:39:05.366Z,16.17
2019-06-20T21:42:09.745Z,16.13
2019-06-20T21:45:14.250Z,16.09
2019-06-20T21:48:18.546Z,16.12
2019-06-20T21:51:22.843Z,16.07
2019-06-20T21:54:27.139Z,16.00
2019-06-20T21:57:31.445Z,16.05
2019-06-20T22:00:40.646Z,16.01
2019-06-20T22:03:44.941Z,15.93
2019-06-20T22:06:49.253Z,15.79
2019-06-20T22:09:53.534Z,15.72
2019-06-20T22:12:57.828Z,15.68
2019-06-20T22:16:02.112Z,15.61
2019-06-20T22:19:06.385Z,15.51
2019-06-20T22:22:10.664Z,15.47
2019-06-20T22:25:15.349Z,15.50
2019-06-20T22:28:19.792Z,15.47
2019-06-20T22:31:25.302Z,15.48
2019-06-20T22:34:29.576Z,15.48
2019-06-20T22:37:33.838Z,15.48
2019-06-20T22:40:38.545Z,15.46
2019-06-20T22:43:42.858Z,15.46
2019-06-20T22:46:47.149Z,15.39
2019-06-20T22:49:51.458Z,15.38
2019-06-20T22:52:55.749Z,15.35
2019-06-20T22:56:00.145Z,15.32
2019-06-20T22:59:04.532Z,15.38
2019-06-20T23:02:08.878Z,15.39
2019-06-20T23:05:13.504Z,15.40
2019-06-20T23:08:17.867Z,15.36
2019-06-20T23:11:22.148Z,15.30
2019-06-20T23:14:26.453Z,15.22
2019-06-20T23:17:30.934Z,15.18
2019-06-20T23:20:35.369Z,15.17
2019-06-20T23:23:39.638Z,15.04
2019-06-20T23:26:43.922Z,14.94
2019-06-20T23:29:48.317Z,14.88
2019-06-20T23:32:52.665Z,14.77
2019-06-20T23:35:56.968Z,14.75
2019-06-20T23:39:01.365Z,14.74
2019-06-20T23:42:05.857Z,14.76
2019-06-20T23:45:10.577Z,14.77
2019-06-20T23:48:14.859Z,14.73
2019-06-20T23:51:25.364Z,14.59
2019-06-20T23:54:26.221Z,14.59
2019-06-20T23:57:30.491Z,14.62
